Time;durP1;ratioP1;P1;durP2;ratioP2;P2;SDS_P1;SDS_P2;PMS_P1;PMS_P2;Temp;Humidity;BMP_temperature;BMP_pressure;BME280_temperature;BME280_humidity;BME280_pressure;Samples;Min_cycle;Max_cycle;Signal;HPM_P1;HPM_P2
2021/03/20 00:00:19;;;;;;;8.25;4.47;;;3.60;99.90;;;;;;5052572;28;20029;-75
2021/03/20 00:02:45;;;;;;;7.80;4.82;;;3.60;99.90;;;;;;5051313;28;20484;-76
2021/03/20 00:05:11;;;;;;;11.45;4.65;;;3.50;99.90;;;;;;5071724;28;20039;-76
2021/03/20 00:07:38;;;;;;;10.18;4.68;;;3.50;99.90;;;;;;5041521;28;20469;-76
2021/03/20 00:10:07;;;;;;;8.57;4.63;;;3.50;99.90;;;;;;5065580;28;20067;-75
2021/03/20 00:12:33;;;;;;;10.98;5.07;;;3.50;99.90;;;;;;5072527;28;20085;-76
2021/03/20 00:14:59;;;;;;;8.40;4.68;;;3.50;99.90;;;;;;5071391;28;20484;-75
2021/03/20 00:17:25;;;;;;;7.30;4.68;;;3.50;99.90;;;;;;5068184;28;20385;-76
2021/03/20 00:19:50;;;;;;;7.65;5.07;;;3.50;99.90;;;;;;5075472;28;20514;-76
2021/03/20 00:22:16;;;;;;;8.52;5.13;;;3.40;99.90;;;;;;5051543;28;20022;-75
2021/03/20 00:24:42;;;;;;;8.05;4.57;;;3.40;99.90;;;;;;5053063;28;20029;-76
2021/03/20 00:27:07;;;;;;;8.10;5.18;;;3.40;99.90;;;;;;5076709;28;20487;-75
2021/03/20 00:29:33;;;;;;;8.15;5.65;;;3.40;99.90;;;;;;5076334;28;20374;-75
2021/03/20 00:34:43;;;;;;;14.50;5.47;;;3.30;99.90;;;;;;5078490;28;20040;-75
2021/03/20 00:37:09;;;;;;;7.72;4.68;;;3.30;99.90;;;;;;5060700;28;20037;-76
2021/03/20 00:39:34;;;;;;;13.43;6.05;;;3.30;99.90;;;;;;5048569;28;20033;-75
2021/03/20 00:42:00;;;;;;;8.88;5.13;;;3.20;99.90;;;;;;5042248;28;20027;-75
2021/03/20 00:44:26;;;;;;;9.60;4.65;;;3.20;99.90;;;;;;5053428;28;20551;-76
2021/03/20 00:46:52;;;;;;;14.30;5.57;;;3.20;99.90;;;;;;5076675;28;20024;-76
2021/03/20 00:49:18;;;;;;;9.85;6.28;;;3.20;99.90;;;;;;5070126;28;20095;-76
2021/03/20 00:51:43;;;;;;;6.88;4.82;;;3.20;99.90;;;;;;5065643;28;20027;-76
2021/03/20 00:54:09;;;;;;;7.82;5.22;;;3.20;99.90;;;;;;5075231;28;20469;-75
2021/03/20 00:56:35;;;;;;;10.18;5.80;;;3.20;99.90;;;;;;5057034;28;20033;-76
2021/03/20 00:59:00;;;;;;;7.30;4.38;;;3.10;99.90;;;;;;5073119;28;20024;-76
2021/03/20 01:01:26;;;;;;;8.95;5.28;;;3.10;99.90;;;;;;5072099;28;20056;-76
2021/03/20 01:03:53;;;;;;;7.43;5.32;;;3.20;99.90;;;;;;5069673;28;20021;-76
2021/03/20 01:06:25;;;;;;;9.43;5.00;;;3.10;99.90;;;;;;5071572;28;20419;-75
2021/03/20 01:08:52;;;;;;;6.20;4.88;;;3.00;99.90;;;;;;5051535;28;20116;-77
2021/03/20 01:11:18;;;;;;;12.77;5.93;;;3.00;99.90;;;;;;5045486;28;20028;-76
2021/03/20 01:13:43;;;;;;;15.05;6.03;;;2.90;99.90;;;;;;5069417;28;20025;-75
2021/03/20 01:16:10;;;;;;;10.02;5.80;;;2.90;99.90;;;;;;5073545;28;20036;-76
2021/03/20 01:18:36;;;;;;;10.57;5.40;;;2.80;99.90;;;;;;5056532;28;20020;-76
2021/03/20 01:21:03;;;;;;;8.25;5.47;;;2.90;99.90;;;;;;5051775;28;20066;-76
2021/03/20 01:23:28;;;;;;;9.10;5.68;;;2.90;99.90;;;;;;5069430;28;20155;-76
2021/03/20 01:25:54;;;;;;;9.77;5.30;;;2.90;99.90;;;;;;5056249;28;20067;-76
2021/03/20 01:28:25;;;;;;;10.48;5.38;;;2.90;99.90;;;;;;5053949;28;20104;-76
2021/03/20 01:30:51;;;;;;;7.18;5.10;;;2.90;99.90;;;;;;5057250;28;20029;-76
2021/03/20 01:33:16;;;;;;;9.25;5.13;;;2.90;99.90;;;;;;5055421;28;20024;-76
2021/03/20 01:35:42;;;;;;;7.53;5.35;;;2.80;99.90;;;;;;5064428;28;20036;-75
2021/03/20 01:38:08;;;;;;;7.47;4.25;;;2.80;99.90;;;;;;5054928;28;20029;-75
2021/03/20 01:40:40;;;;;;;9.25;5.03;;;2.80;99.90;;;;;;5053666;28;20032;-75
2021/03/20 01:43:07;;;;;;;10.05;5.22;;;2.80;99.90;;;;;;5054267;28;20075;-75
2021/03/20 01:45:35;;;;;;;10.63;5.35;;;2.70;99.90;;;;;;5055288;28;20428;-75
2021/03/20 01:48:33;;;;;;;7.88;5.05;;;2.60;99.90;;;;;;5062788;28;20497;-76
2021/03/20 01:51:04;;;;;;;7.50;4.80;;;2.60;99.90;;;;;;5067687;28;20051;-75
2021/03/20 01:53:46;;;;;;;9.45;5.35;;;2.60;99.90;;;;;;5057404;28;20024;-76
2021/03/20 01:56:19;;;;;;;7.10;4.43;;;2.50;99.90;;;;;;5069164;28;20021;-76
2021/03/20 01:58:47;;;;;;;7.20;5.10;;;2.50;99.90;;;;;;5060295;28;20028;-75
2021/03/20 02:01:26;;;;;;;9.55;5.47;;;2.50;99.90;;;;;;5069840;28;20025;-76
2021/03/20 02:03:52;;;;;;;18.48;6.32;;;2.50;99.90;;;;;;5063702;28;20013;-75
2021/03/20 02:06:19;;;;;;;10.35;4.88;;;2.40;99.90;;;;;;5077002;28;20039;-75
2021/03/20 02:08:47;;;;;;;8.55;5.53;;;2.40;99.90;;;;;;5050493;28;20048;-75
2021/03/20 02:11:55;;;;;;;14.27;6.22;;;2.40;99.90;;;;;;5059428;28;20086;-75
2021/03/20 02:14:20;;;;;;;;;;;2.40;99.90;;;;;;5052090;28;20048;-76
2021/03/20 02:16:54;;;;;;;7.93;4.90;;;2.40;99.90;;;;;;5056499;28;19912;-76
2021/03/20 02:20:05;;;;;;;14.00;5.10;;;2.40;99.90;;;;;;5040375;28;20040;-75
2021/03/20 02:23:02;;;;;;;9.40;5.28;;;2.40;99.90;;;;;;5055634;28;20047;-76
2021/03/20 02:25:44;;;;;;;9.52;4.85;;;2.40;99.90;;;;;;5045511;28;20059;-75
2021/03/20 02:28:41;;;;;;;9.10;5.32;;;2.30;99.90;;;;;;5071275;28;20062;-76
2021/03/20 02:31:37;;;;;;;7.97;4.75;;;2.30;99.90;;;;;;5067921;28;20385;-76
2021/03/20 02:34:27;;;;;;;8.18;4.90;;;2.30;99.90;;;;;;5055614;28;20054;-76
2021/03/20 02:37:06;;;;;;;10.07;4.80;;;2.20;99.90;;;;;;5054578;28;20075;-75
2021/03/20 02:39:57;;;;;;;7.72;5.60;;;2.20;99.90;;;;;;5051055;28;20036;-75
2021/03/20 02:42:23;;;;;;;11.00;4.82;;;2.20;99.90;;;;;;5065206;28;20035;-76
2021/03/20 02:44:58;;;;;;;6.50;4.50;;;2.20;99.90;;;;;;5046720;28;20119;-76
2021/03/20 02:47:34;;;;;;;11.20;5.63;;;2.20;99.90;;;;;;5053519;28;20045;-76
2021/03/20 02:50:09;;;;;;;6.53;4.78;;;2.20;99.90;;;;;;5051979;28;20428;-75
2021/03/20 02:53:05;;;;;;;7.85;5.00;;;2.20;99.90;;;;;;5072366;28;20029;-75
2021/03/20 02:55:35;;;;;;;8.13;4.70;;;2.10;99.90;;;;;;5066678;28;20047;-75
2021/03/20 02:58:04;;;;;;;6.20;4.63;;;2.10;99.90;;;;;;5044277;28;20016;-74
2021/03/20 03:00:38;;;;;;;8.55;5.22;;;2.10;99.90;;;;;;5068337;28;20509;-75
2021/03/20 03:03:07;;;;;;;6.65;4.43;;;2.00;99.90;;;;;;5072078;28;20025;-75
2021/03/20 03:05:38;;;;;;;10.23;4.70;;;2.10;99.90;;;;;;5054021;28;20028;-75
2021/03/20 03:08:12;;;;;;;8.82;5.13;;;2.00;99.90;;;;;;5043744;28;20388;-75
2021/03/20 03:10:47;;;;;;;9.02;5.28;;;2.00;99.90;;;;;;5054162;28;20025;-76
2021/03/20 03:13:40;;;;;;;7.82;5.22;;;2.00;99.90;;;;;;5052298;28;20025;-75
2021/03/20 03:16:18;;;;;;;9.18;5.30;;;2.00;99.90;;;;;;5056216;28;20433;-75
2021/03/20 03:18:55;;;;;;;15.13;5.73;;;2.00;99.90;;;;;;5065149;28;20031;-75
2021/03/20 03:21:23;;;;;;;7.00;4.85;;;1.90;99.90;;;;;;5064608;28;20472;-75
2021/03/20 03:23:49;;;;;;;8.32;4.65;;;1.90;99.90;;;;;;5054536;28;20120;-76
2021/03/20 03:26:24;;;;;;;12.00;5.15;;;1.90;99.90;;;;;;5048321;28;20493;-76
2021/03/20 03:28:53;;;;;;;8.50;5.40;;;1.80;99.90;;;;;;5054309;28;20032;-76
2021/03/20 03:31:24;;;;;;;8.50;5.35;;;1.80;99.90;;;;;;5044864;28;20051;-75
2021/03/20 03:34:01;;;;;;;9.57;5.25;;;1.80;99.90;;;;;;5061566;28;20037;-75
2021/03/20 03:36:32;;;;;;;7.72;4.75;;;1.80;99.90;;;;;;5054875;28;20056;-75
2021/03/20 03:39:30;;;;;;;10.07;5.10;;;1.80;99.90;;;;;;5042057;28;20021;-75
2021/03/20 03:41:56;;;;;;;9.95;4.53;;;1.80;99.90;;;;;;5036699;28;20400;-75
2021/03/20 03:44:21;;;;;;;9.18;6.55;;;1.80;99.90;;;;;;5052404;28;20116;-75
2021/03/20 03:46:48;;;;;;;8.13;4.80;;;1.80;99.90;;;;;;5040451;28;20029;-75
2021/03/20 03:49:23;;;;;;;6.17;4.40;;;1.80;99.90;;;;;;5045377;28;20111;-75
2021/03/20 03:51:48;;;;;;;11.30;5.50;;;1.80;99.90;;;;;;5055046;28;20032;-77
2021/03/20 03:54:14;;;;;;;8.90;5.47;;;1.80;99.90;;;;;;5076305;28;20054;-74
2021/03/20 03:56:43;;;;;;;7.80;5.28;;;1.70;99.90;;;;;;5064638;28;20104;-74
2021/03/20 03:59:16;;;;;;;;;;;1.70;99.90;;;;;;5040306;28;20401;-75
2021/03/20 04:02:09;;;;;;;10.52;4.50;;;1.70;99.90;;;;;;5053982;28;19908;-75
2021/03/20 04:04:40;;;;;;;10.95;5.07;;;1.70;99.90;;;;;;5062227;28;20031;-76
2021/03/20 04:07:09;;;;;;;10.18;5.95;;;1.70;99.90;;;;;;5067890;28;20074;-76
2021/03/20 04:10:09;;;;;;;7.70;5.40;;;1.60;99.90;;;;;;5052811;28;20119;-76
2021/03/20 04:12:51;;;;;;;11.45;6.22;;;1.60;99.90;;;;;;5066788;28;20021;-76
2021/03/20 04:15:42;;;;;;;10.40;5.93;;;1.60;99.90;;;;;;5058826;28;20509;-76
2021/03/20 04:18:23;;;;;;;9.32;5.05;;;1.60;99.90;;;;;;5068112;28;20350;-76
2021/03/20 04:21:04;;;;;;;8.45;5.38;;;1.60;99.90;;;;;;5057662;28;20516;-76
2021/03/20 04:23:34;;;;;;;7.18;5.28;;;1.50;99.90;;;;;;5058514;28;20566;-77
2021/03/20 04:26:32;;;;;;;7.60;4.82;;;1.60;99.90;;;;;;5066790;28;20090;-77
2021/03/20 04:29:04;;;;;;;;;;;1.60;99.90;;;;;;5063783;28;20486;-76
2021/03/20 04:31:52;;;;;;;6.75;4.82;;;1.50;99.90;;;;;;5066046;28;20375;-76
2021/03/20 04:34:30;;;;;;;9.10;5.20;;;1.50;99.90;;;;;;5064109;28;20495;-76
2021/03/20 04:37:08;;;;;;;;;;;1.50;99.90;;;;;;5052022;28;20067;-76
2021/03/20 04:39:41;;;;;;;7.18;4.28;;;1.40;99.90;;;;;;5065982;28;19916;-76
2021/03/20 04:42:07;;;;;;;9.38;5.50;;;1.40;99.90;;;;;;5063371;28;20032;-76
2021/03/20 04:44:37;;;;;;;8.40;5.43;;;1.40;99.90;;;;;;5046479;28;20105;-76
2021/03/20 04:47:24;;;;;;;7.03;4.60;;;1.40;99.90;;;;;;5060474;28;20194;-76
2021/03/20 04:50:07;;;;;;;9.10;5.40;;;1.40;99.90;;;;;;5064725;28;20032;-77
2021/03/20 04:52:42;;;;;;;11.02;5.13;;;1.40;99.90;;;;;;5074337;28;20039;-76
2021/03/20 04:55:10;;;;;;;9.80;5.15;;;1.30;99.90;;;;;;5076828;28;20487;-76
2021/03/20 04:57:50;;;;;;;8.15;5.15;;;1.40;99.90;;;;;;5068545;28;20032;-76
2021/03/20 05:00:34;;;;;;;7.40;5.15;;;1.40;99.90;;;;;;5061968;28;20041;-75
2021/03/20 05:03:21;;;;;;;9.25;5.28;;;1.40;99.90;;;;;;5047557;28;20029;-74
2021/03/20 05:06:10;;;;;;;13.73;5.63;;;1.40;99.90;;;;;;5054182;28;20044;-75
2021/03/20 05:08:51;;;;;;;8.82;5.30;;;1.40;99.90;;;;;;5069757;28;20040;-76
2021/03/20 05:11:31;;;;;;;8.15;5.55;;;1.50;99.90;;;;;;5054844;28;20067;-75
2021/03/20 05:14:05;;;;;;;10.85;5.85;;;1.50;99.90;;;;;;5073825;28;20086;-76
2021/03/20 05:16:56;;;;;;;8.52;6.00;;;1.50;99.90;;;;;;5071447;28;20059;-76
2021/03/20 05:19:23;;;;;;;9.68;5.95;;;1.60;99.90;;;;;;5055805;28;20033;-76
2021/03/20 05:21:50;;;;;;;11.85;5.85;;;1.70;99.90;;;;;;5047355;28;20025;-75
2021/03/20 05:24:37;;;;;;;13.65;6.22;;;1.80;99.90;;;;;;5055651;28;20052;-75
2021/03/20 05:27:07;;;;;;;10.53;6.70;;;1.90;99.90;;;;;;5069800;28;20048;-76
2021/03/20 05:29:32;;;;;;;8.52;5.28;;;1.90;99.90;;;;;;5056791;28;20345;-76
2021/03/20 05:31:59;;;;;;;9.07;5.65;;;2.00;99.90;;;;;;5055072;28;20502;-76
2021/03/20 05:34:30;;;;;;;8.30;5.65;;;2.00;99.90;;;;;;5051204;28;20028;-76
2021/03/20 05:36:57;;;;;;;7.57;5.28;;;2.10;99.90;;;;;;5070381;28;20076;-76
2021/03/20 05:39:23;;;;;;;9.27;5.82;;;2.20;99.90;;;;;;5055423;28;20039;-76
2021/03/20 05:42:14;;;;;;;9.27;5.10;;;2.20;99.90;;;;;;5074458;28;20032;-76
2021/03/20 05:45:14;;;;;;;7.32;5.20;;;2.30;99.90;;;;;;5074502;28;20020;-75
2021/03/20 05:48:10;;;;;;;9.60;4.90;;;2.30;99.90;;;;;;5072193;28;20035;-76
2021/03/20 05:50:55;;;;;;;12.13;5.65;;;2.30;99.90;;;;;;5064682;28;20020;-76
2021/03/20 05:53:49;;;;;;;9.90;5.53;;;2.30;99.90;;;;;;5073335;28;20028;-76
2021/03/20 05:56:23;;;;;;;6.75;4.72;;;2.30;99.90;;;;;;5066528;28;20028;-76
2021/03/20 05:59:12;;;;;;;7.38;5.28;;;2.30;99.90;;;;;;5071530;28;20041;-76
2021/03/20 06:01:54;;;;;;;8.07;5.07;;;2.40;99.90;;;;;;5072439;28;20528;-76
2021/03/20 06:04:38;;;;;;;11.63;5.47;;;2.40;99.90;;;;;;5073541;28;20085;-76
2021/03/20 06:07:07;;;;;;;8.02;5.22;;;2.40;99.90;;;;;;5055574;28;20108;-75
2021/03/20 06:09:40;;;;;;;14.73;5.93;;;2.40;99.90;;;;;;5072440;28;20427;-75
2021/03/20 06:12:28;;;;;;;9.15;5.25;;;2.40;99.90;;;;;;5067568;28;20031;-75
2021/03/20 06:15:06;;;;;;;;;;;2.50;99.90;;;;;;5069416;28;20039;-75
2021/03/20 06:18:08;;;;;;;7.32;5.72;;;2.60;99.90;;;;;;5051940;28;19935;-76
2021/03/20 06:20:53;;;;;;;9.52;5.43;;;2.70;99.90;;;;;;5054396;28;20055;-76
2021/03/20 06:23:39;;;;;;;8.70;5.10;;;2.80;99.90;;;;;;5066066;28;20028;-75
2021/03/20 06:26:24;;;;;;;12.35;5.50;;;2.90;99.90;;;;;;5073480;28;20095;-75
2021/03/20 06:28:58;;;;;;;8.43;4.90;;;3.10;99.90;;;;;;5077470;28;20032;-77
2021/03/20 06:31:28;;;;;;;8.02;5.00;;;3.30;99.90;;;;;;5076182;28;20032;-75
2021/03/20 06:34:40;;;;;;;8.05;5.05;;;3.40;99.90;;;;;;5076137;28;20029;-75
2021/03/20 06:37:22;;;;;;;10.95;5.30;;;3.50;99.90;;;;;;5065393;28;20497;-77
2021/03/20 06:39:57;;;;;;;11.23;5.57;;;3.50;99.90;;;;;;5076198;28;20473;-77
2021/03/20 06:42:43;;;;;;;9.93;5.93;;;3.60;99.90;;;;;;5053970;28;20024;-77
2021/03/20 06:45:24;;;;;;;9.50;4.70;;;3.60;99.90;;;;;;5055250;28;20531;-77
2021/03/20 06:47:55;;;;;;;9.38;5.00;;;3.70;99.90;;;;;;5071679;28;20077;-77
2021/03/20 06:50:31;;;;;;;8.45;4.60;;;3.80;99.90;;;;;;5063674;28;20032;-75
2021/03/20 06:53:02;;;;;;;7.85;5.05;;;3.80;99.90;;;;;;5061053;28;20351;-75
2021/03/20 06:55:31;;;;;;;6.97;4.78;;;3.80;99.90;;;;;;5054061;28;20068;-75
2021/03/20 06:57:59;;;;;;;7.40;4.88;;;3.90;99.90;;;;;;5070336;28;20388;-75
2021/03/20 07:00:34;;;;;;;8.70;5.03;;;3.90;99.90;;;;;;5052643;28;20032;-75
2021/03/20 07:03:18;;;;;;;7.88;4.35;;;4.00;99.90;;;;;;5067192;28;20032;-75
2021/03/20 07:05:58;;;;;;;7.38;4.53;;;4.00;99.90;;;;;;5071611;28;20040;-75
2021/03/20 07:08:55;;;;;;;6.28;4.22;;;4.00;99.90;;;;;;5045862;28;20021;-75
2021/03/20 07:11:27;;;;;;;7.45;4.68;;;4.10;99.90;;;;;;5048969;28;20039;-75
2021/03/20 07:13:56;;;;;;;6.15;4.15;;;4.10;99.90;;;;;;5049970;28;20123;-76
2021/03/20 07:16:23;;;;;;;7.50;4.05;;;4.30;99.90;;;;;;5055166;28;20383;-76
2021/03/20 07:19:13;;;;;;;10.57;4.60;;;4.30;99.90;;;;;;5054449;28;20020;-76
2021/03/20 07:21:40;;;;;;;6.85;4.25;;;4.50;99.90;;;;;;5048399;28;20081;-76
2021/03/20 07:24:20;;;;;;;9.75;5.00;;;4.60;99.90;;;;;;5068711;28;20031;-75
2021/03/20 07:26:53;;;;;;;5.97;4.20;;;4.70;99.90;;;;;;5062342;28;20391;-75
2021/03/20 07:29:35;;;;;;;9.80;4.43;;;4.80;99.90;;;;;;5069622;28;20037;-75
2021/03/20 07:32:01;;;;;;;9.10;4.72;;;4.80;99.90;;;;;;5052117;28;20040;-75
2021/03/20 07:34:30;;;;;;;9.20;5.53;;;4.80;99.90;;;;;;5045687;28;20032;-75
2021/03/20 07:37:06;;;;;;;9.30;5.25;;;4.80;99.90;;;;;;5066618;28;20072;-75
2021/03/20 07:39:45;;;;;;;8.07;4.82;;;4.90;99.90;;;;;;5045517;28;20477;-75
2021/03/20 07:42:31;;;;;;;8.07;5.25;;;5.10;99.90;;;;;;5066423;28;20024;-75
2021/03/20 07:45:00;;;;;;;11.90;5.38;;;5.30;99.90;;;;;;5050295;28;20072;-75
2021/03/20 07:47:37;;;;;;;7.57;4.35;;;5.40;99.90;;;;;;5072596;28;20032;-76
2021/03/20 07:50:06;;;;;;;5.97;4.57;;;5.50;99.90;;;;;;5049707;28;20043;-77
2021/03/20 07:52:32;;;;;;;6.65;4.68;;;5.60;99.90;;;;;;5067701;28;20285;-76
2021/03/20 07:55:21;;;;;;;6.45;4.45;;;5.60;99.90;;;;;;5050436;28;20474;-75
2021/03/20 07:57:58;;;;;;;9.55;4.30;;;5.70;99.90;;;;;;5065018;28;20094;-74
2021/03/20 08:00:31;;;;;;;8.95;4.32;;;5.80;99.90;;;;;;5068176;28;20032;-74
2021/03/20 08:03:24;;;;;;;8.45;5.60;;;5.90;99.90;;;;;;5066908;28;20028;-76
2021/03/20 08:05:51;;;;;;;7.65;4.63;;;6.00;99.90;;;;;;5046578;28;20036;-75
2021/03/20 08:08:20;;;;;;;5.40;4.03;;;6.10;99.90;;;;;;5064614;28;20033;-75
2021/03/20 08:10:55;;;;;;;7.75;4.38;;;6.30;99.90;;;;;;5044236;28;20051;-75
2021/03/20 08:13:38;;;;;;;8.63;3.80;;;6.40;99.90;;;;;;5063571;28;20025;-76
2021/03/20 08:16:05;;;;;;;12.80;4.63;;;6.50;99.90;;;;;;5062067;28;20025;-74
2021/03/20 08:18:41;;;;;;;11.02;4.40;;;6.60;99.90;;;;;;5053094;28;20104;-75
2021/03/20 08:21:22;;;;;;;11.73;5.45;;;6.40;99.90;;;;;;5066622;28;20024;-75
2021/03/20 08:23:55;;;;;;;10.77;5.03;;;6.50;99.90;;;;;;5069637;28;20021;-74
2021/03/20 08:26:27;;;;;;;9.57;4.70;;;6.70;99.90;;;;;;5047578;28;20028;-75
2021/03/20 08:29:21;;;;;;;6.60;4.25;;;6.80;99.90;;;;;;5068928;28;21621;-74
2021/03/20 08:32:16;;;;;;;7.38;4.30;;;6.80;99.90;;;;;;5047969;28;20036;-76
2021/03/20 08:34:58;;;;;;;6.18;3.45;;;6.70;99.90;;;;;;5053858;28;20052;-74
2021/03/20 08:37:33;;;;;;;5.78;4.20;;;6.70;99.90;;;;;;5068763;28;20106;-75
2021/03/20 08:40:08;;;;;;;8.52;5.03;;;6.60;99.90;;;;;;5071249;28;20558;-76
2021/03/20 08:42:49;;;;;;;6.90;4.57;;;6.40;99.90;;;;;;5074143;28;20024;-76
2021/03/20 08:45:27;;;;;;;8.48;5.05;;;6.30;99.90;;;;;;5053737;28;20060;-76
2021/03/20 08:48:03;;;;;;;7.18;4.53;;;6.40;99.90;;;;;;5066452;28;20444;-76
2021/03/20 08:50:36;;;;;;;5.78;4.28;;;6.20;99.90;;;;;;5053319;28;20488;-77
2021/03/20 08:53:01;;;;;;;12.85;5.22;;;6.30;99.90;;;;;;5052615;28;20128;-75
2021/03/20 08:55:36;;;;;;;5.93;4.13;;;6.20;99.90;;;;;;5055342;28;20119;-75
2021/03/20 08:58:21;;;;;;;8.18;4.47;;;6.20;99.90;;;;;;5069236;28;20021;-77
2021/03/20 09:01:09;;;;;;;7.32;4.97;;;6.30;99.90;;;;;;5062897;28;20363;-75
2021/03/20 09:03:38;;;;;;;;;;;6.50;99.90;;;;;;5062447;28;20036;-77
2021/03/20 09:06:17;;;;;;;11.63;4.28;;;6.60;99.90;;;;;;5053461;28;20390;-76
2021/03/20 09:08:44;;;;;;;6.22;4.10;;;6.70;99.90;;;;;;5052459;28;20481;-75
2021/03/20 09:11:42;;;;;;;9.07;4.32;;;6.80;99.90;;;;;;5073587;28;20020;-76
2021/03/20 09:14:38;;;;;;;4.70;3.50;;;6.80;99.90;;;;;;5073350;28;20056;-75
2021/03/20 09:17:11;;;;;;;6.63;3.88;;;6.60;99.90;;;;;;5062264;28;20033;-76
2021/03/20 09:19:40;;;;;;;5.00;4.43;;;6.70;99.90;;;;;;5073579;28;20052;-76
2021/03/20 09:22:16;;;;;;;8.55;4.78;;;6.80;99.90;;;;;;5056799;28;20476;-78
2021/03/20 09:25:01;;;;;;;8.18;4.47;;;7.00;99.90;;;;;;5057068;28;20031;-76
2021/03/20 09:27:59;;;;;;;6.38;4.00;;;7.20;99.90;;;;;;5068877;28;20050;-78
2021/03/20 09:30:30;;;;;;;5.70;3.53;;;7.30;99.90;;;;;;5066311;28;20549;-77
2021/03/20 09:32:57;;;;;;;5.43;3.75;;;7.50;99.90;;;;;;5057683;28;20041;-76
2021/03/20 09:35:38;;;;;;;6.13;3.55;;;7.60;99.90;;;;;;5057793;28;20027;-75
2021/03/20 09:38:04;;;;;;;5.97;3.60;;;7.60;99.90;;;;;;5068566;28;20036;-76
2021/03/20 09:40:41;;;;;;;6.90;3.35;;;7.50;99.90;;;;;;5056744;28;20393;-75
2021/03/20 09:43:44;;;;;;;4.47;3.25;;;7.70;99.90;;;;;;5074233;28;20024;-75
2021/03/20 09:46:35;;;;;;;5.22;2.63;;;7.90;99.90;;;;;;5050486;28;20119;-74
2021/03/20 09:49:04;;;;;;;4.50;2.72;;;8.10;99.90;;;;;;5063850;28;20543;-75
2021/03/20 09:51:52;;;;;;;3.47;2.92;;;8.40;99.90;;;;;;5042158;28;20033;-75
2021/03/20 09:54:23;;;;;;;3.92;2.88;;;8.60;99.90;;;;;;5065408;28;20024;-75
2021/03/20 09:59:42;;;;;;;5.57;2.75;;;8.70;99.90;;;;;;5065216;28;20392;-74
2021/03/20 10:02:10;;;;;;;4.85;3.30;;;8.60;99.90;;;;;;5046554;28;20021;-75
2021/03/20 10:04:51;;;;;;;5.43;3.83;;;8.70;99.90;;;;;;5057227;28;20055;-75
2021/03/20 10:07:20;;;;;;;4.03;3.08;;;8.40;99.90;;;;;;5065410;28;20021;-75
2021/03/20 10:10:10;;;;;;;3.72;3.05;;;8.50;99.90;;;;;;5050453;28;20304;-76
2021/03/20 10:12:45;;;;;;;3.22;2.63;;;8.70;99.90;;;;;;5047060;28;20025;-75
2021/03/20 10:15:14;;;;;;;4.30;2.95;;;8.90;99.90;;;;;;5048700;28;20036;-76
2021/03/20 10:18:04;;;;;;;3.10;2.60;;;9.00;99.90;;;;;;5046138;28;20035;-75
2021/03/20 10:20:44;;;;;;;3.95;2.90;;;9.00;99.90;;;;;;5046863;28;20575;-75
2021/03/20 10:23:26;;;;;;;9.02;2.70;;;9.10;99.90;;;;;;5065345;28;20028;-75
2021/03/20 10:25:55;;;;;;;3.40;2.45;;;8.90;99.60;;;;;;5071348;28;20032;-76
2021/03/20 10:28:29;;;;;;;5.35;2.80;;;8.70;99.70;;;;;;5069473;28;20025;-75
2021/03/20 10:31:03;;;;;;;4.53;2.88;;;8.80;99.90;;;;;;5066521;28;20031;-75
2021/03/20 10:33:37;;;;;;;4.03;3.00;;;8.80;99.60;;;;;;5046348;28;20029;-76
2021/03/20 10:36:28;;;;;;;5.88;2.50;;;8.70;99.90;;;;;;5063230;28;20037;-77
2021/03/20 10:38:53;;;;;;;3.50;2.22;;;8.60;97.80;;;;;;5049611;28;20021;-77
2021/03/20 10:41:36;;;;;;;3.42;2.13;;;8.60;98.60;;;;;;5047192;28;20037;-75
2021/03/20 10:44:15;;;;;;;3.08;2.58;;;8.70;99.90;;;;;;5065293;28;20024;-76
2021/03/20 10:46:41;;;;;;;4.93;2.22;;;8.70;99.90;;;;;;5053425;28;20040;-75
2021/03/20 10:49:21;;;;;;;2.75;2.40;;;8.80;99.80;;;;;;5049462;28;20119;-75
2021/03/20 10:51:49;;;;;;;3.22;2.45;;;8.80;99.80;;;;;;5072088;28;20038;-74
2021/03/20 10:54:36;;;;;;;2.67;2.42;;;8.60;99.50;;;;;;5055334;28;20131;-77
2021/03/20 10:57:09;;;;;;;4.47;2.47;;;8.80;99.90;;;;;;5051289;28;20036;-76
2021/03/20 10:59:37;;;;;;;2.75;2.25;;;9.00;99.90;;;;;;5054119;28;20043;-74
2021/03/20 11:02:35;;;;;;;4.07;2.53;;;9.10;99.90;;;;;;5052298;28;20035;-75
2021/03/20 11:05:13;;;;;;;5.22;2.97;;;9.30;99.80;;;;;;5051694;28;20025;-75
2021/03/20 11:08:22;;;;;;;4.88;3.17;;;9.30;99.40;;;;;;5069918;28;20036;-76
2021/03/20 11:10:52;;;;;;;6.75;3.40;;;9.40;99.90;;;;;;5049682;28;20450;-76
2021/03/20 11:13:17;;;;;;;4.82;3.38;;;9.30;99.10;;;;;;5059897;28;20036;-75
2021/03/20 11:15:47;;;;;;;5.25;3.60;;;9.20;98.00;;;;;;5071818;28;20477;-75
2021/03/20 11:18:24;;;;;;;5.45;2.97;;;9.20;99.90;;;;;;5067690;28;20104;-75
2021/03/20 11:20:50;;;;;;;6.07;3.25;;;9.00;99.90;;;;;;5054049;28;20107;-75
2021/03/20 11:23:32;;;;;;;7.20;3.92;;;9.20;99.90;;;;;;5064499;28;20108;-76
2021/03/20 11:26:32;;;;;;;5.30;2.88;;;9.40;99.90;;;;;;5065418;28;20131;-76
2021/03/20 11:28:59;;;;;;;3.85;2.83;;;9.60;99.90;;;;;;5055557;28;20064;-75
2021/03/20 11:31:27;;;;;;;3.90;3.00;;;9.80;99.90;;;;;;5071367;28;20359;-75
2021/03/20 11:33:53;;;;;;;4.65;2.38;;;9.90;99.20;;;;;;5074145;28;20051;-74
2021/03/20 11:36:22;;;;;;;3.35;2.85;;;9.90;98.70;;;;;;5041400;28;20033;-76
2021/03/20 11:38:49;;;;;;;4.82;3.28;;;10.00;99.90;;;;;;5047064;28;20036;-75
2021/03/20 11:41:22;;;;;;;4.40;2.38;;;10.20;99.90;;;;;;5045242;28;20029;-77
2021/03/20 11:44:04;;;;;;;4.60;3.17;;;10.30;99.90;;;;;;5046364;28;20127;-76
2021/03/20 11:46:34;;;;;;;9.38;3.70;;;10.10;99.90;;;;;;5062716;28;20043;-76
2021/03/20 11:49:18;;;;;;;4.43;3.20;;;10.10;99.50;;;;;;5067277;28;20475;-76
2021/03/20 11:51:46;;;;;;;4.63;2.85;;;10.20;99.70;;;;;;5048165;28;20055;-75
2021/03/20 11:54:37;;;;;;;3.10;2.25;;;10.10;99.90;;;;;;5050629;28;20162;-74
2021/03/20 11:57:27;;;;;;;9.18;2.83;;;9.70;99.90;;;;;;5066224;28;20111;-75
2021/03/20 11:59:52;;;;;;;4.38;2.80;;;9.50;98.20;;;;;;5047577;28;20020;-75
2021/03/20 12:02:24;;;;;;;3.65;3.05;;;9.70;99.90;;;;;;5065174;28;20393;-75
2021/03/20 12:05:13;;;;;;;6.22;3.50;;;9.90;99.90;;;;;;5045252;28;20101;-75
2021/03/20 12:07:39;;;;;;;4.78;3.45;;;10.00;99.90;;;;;;5062969;28;20033;-75
2021/03/20 12:10:34;;;;;;;5.72;3.80;;;10.20;99.90;;;;;;5045463;28;20032;-75
2021/03/20 12:13:00;;;;;;;3.75;3.40;;;10.40;99.90;;;;;;5044477;28;20480;-75
2021/03/20 12:15:35;;;;;;;4.78;3.42;;;10.50;99.90;;;;;;5067372;28;20029;-76
2021/03/20 12:18:11;;;;;;;5.93;3.83;;;10.50;99.90;;;;;;5049498;28;20085;-75
2021/03/20 12:20:43;;;;;;;10.82;4.80;;;10.50;99.90;;;;;;5048611;28;20124;-75
2021/03/20 12:23:24;;;;;;;4.75;4.03;;;10.60;99.90;;;;;;5051655;28;20470;-75
2021/03/20 12:25:58;;;;;;;7.55;4.65;;;10.90;99.90;;;;;;5066833;28;20028;-75
2021/03/20 12:28:43;;;;;;;11.70;5.05;;;10.80;99.90;;;;;;5050987;28;20115;-75
2021/03/20 12:31:16;;;;;;;6.28;4.28;;;10.80;99.90;;;;;;5067768;28;20072;-75
2021/03/20 12:34:08;;;;;;;10.75;5.22;;;11.10;99.90;;;;;;5047582;28;20112;-75
2021/03/20 12:36:43;;;;;;;6.82;4.88;;;11.00;99.90;;;;;;5049089;28;20040;-76
2021/03/20 12:39:12;;;;;;;7.13;4.55;;;11.20;99.90;;;;;;5067852;28;20017;-74
2021/03/20 12:41:40;;;;;;;7.68;4.60;;;11.40;99.90;;;;;;5062355;28;20024;-76
2021/03/20 12:44:20;;;;;;;6.53;5.20;;;11.10;99.90;;;;;;5053904;28;20381;-76
2021/03/20 12:46:54;;;;;;;6.53;4.88;;;10.70;99.90;;;;;;5073768;28;20029;-75
2021/03/20 12:49:26;;;;;;;9.30;4.57;;;10.80;99.90;;;;;;5044242;28;20036;-75
2021/03/20 12:52:02;;;;;;;7.00;4.18;;;11.20;99.90;;;;;;5075049;28;20029;-75
2021/03/20 12:54:31;;;;;;;7.72;4.22;;;11.00;99.90;;;;;;5075718;28;20140;-76
2021/03/20 12:56:57;;;;;;;8.02;3.63;;;10.60;99.90;;;;;;5075751;28;20078;-75
2021/03/20 12:59:23;;;;;;;5.40;3.88;;;10.70;99.90;;;;;;5057654;28;20028;-75
2021/03/20 13:01:48;;;;;;;5.07;3.47;;;10.40;99.90;;;;;;5074827;28;20060;-75
2021/03/20 13:04:16;;;;;;;7.22;3.88;;;10.10;99.90;;;;;;5075045;28;20024;-75
2021/03/20 13:06:41;;;;;;;7.40;3.85;;;10.00;99.90;;;;;;5076018;28;20067;-76
2021/03/20 13:09:08;;;;;;;7.68;3.83;;;10.00;99.90;;;;;;5075524;28;20053;-76
2021/03/20 13:11:33;;;;;;;4.70;3.13;;;10.10;99.90;;;;;;5075413;28;20090;-76
2021/03/20 13:14:00;;;;;;;4.57;3.65;;;10.30;99.90;;;;;;5075340;28;20029;-76
2021/03/20 13:16:26;;;;;;;6.80;4.38;;;10.20;99.90;;;;;;5055947;28;20074;-76
2021/03/20 13:18:52;;;;;;;12.38;4.07;;;10.10;99.90;;;;;;5073640;28;20020;-76
2021/03/20 13:21:19;;;;;;;8.75;3.92;;;10.20;99.90;;;;;;5058167;28;20233;-76
2021/03/20 13:23:44;;;;;;;11.85;4.50;;;10.20;99.90;;;;;;5057399;28;20047;-76
2021/03/20 13:26:10;;;;;;;6.80;4.82;;;10.20;99.90;;;;;;5067515;28;20028;-76
2021/03/20 13:28:37;;;;;;;13.25;5.57;;;10.00;99.90;;;;;;5068452;28;20032;-75
2021/03/20 13:31:02;;;;;;;9.95;4.35;;;9.70;99.90;;;;;;5067718;28;20044;-75
2021/03/20 13:33:28;;;;;;;7.03;4.22;;;9.40;99.90;;;;;;5067967;28;20032;-75
2021/03/20 13:35:54;;;;;;;4.93;4.20;;;9.40;99.90;;;;;;5067442;28;20028;-75
2021/03/20 13:38:20;;;;;;;6.35;4.18;;;9.50;99.90;;;;;;5067055;28;20456;-74
2021/03/20 13:40:46;;;;;;;14.77;4.93;;;9.70;99.90;;;;;;5066854;28;20025;-75
2021/03/20 13:43:14;;;;;;;6.13;4.50;;;9.70;99.90;;;;;;5071468;28;20159;-73